createdAt,value
2023-09-28T00:02:26.672Z,42.19
2023-09-28T00:04:53.222Z,42.25
2023-09-28T00:07:20.871Z,42.28
2023-09-28T00:09:47.400Z,42.26
2023-09-28T00:12:13.882Z,42.25
2023-09-28T00:14:40.533Z,42.26
2023-09-28T00:17:09.597Z,42.33
2023-09-28T00:19:36.094Z,42.34
2023-09-28T00:22:02.808Z,42.26
2023-09-28T00:24:29.898Z,42.35
2023-09-28T00:26:57.820Z,42.33
2023-09-28T00:29:24.414Z,42.25
2023-09-28T00:31:53.478Z,42.35
2023-09-28T00:34:19.964Z,42.21
2023-09-28T00:36:46.428Z,42.20
2023-09-28T00:39:13.330Z,42.17
2023-09-28T00:41:39.787Z,42.23
2023-09-28T00:44:06.307Z,42.24
2023-09-28T00:46:33.698Z,42.29
2023-09-28T00:49:03.559Z,42.30
2023-09-28T00:51:31.920Z,42.27
2023-09-28T00:53:58.674Z,42.28
2023-09-28T00:56:25.464Z,42.23
2023-09-28T00:58:52.035Z,42.30
2023-09-28T01:01:18.503Z,42.28
2023-09-28T01:03:45.171Z,42.26
2023-09-28T01:06:11.716Z,42.26
2023-09-28T01:08:38.181Z,42.29
2023-09-28T01:11:04.905Z,42.35
2023-09-28T01:13:35.293Z,42.28
2023-09-28T01:16:01.702Z,42.26
2023-09-28T01:18:28.133Z,42.17
2023-09-28T01:20:55.745Z,42.29
2023-09-28T01:23:22.292Z,42.26
2023-09-28T01:25:50.883Z,42.27
2023-09-28T01:28:20.362Z,42.25
2023-09-28T01:30:49.893Z,42.30
2023-09-28T01:33:18.747Z,42.20
2023-09-28T01:35:45.182Z,42.27
2023-09-28T01:38:14.457Z,42.25
2023-09-28T01:40:41.410Z,42.20
2023-09-28T01:43:11.264Z,42.31
2023-09-28T01:45:37.854Z,42.17
2023-09-28T01:48:05.234Z,42.19
2023-09-28T01:50:32.117Z,42.29
2023-09-28T01:52:58.767Z,42.27
2023-09-28T01:55:25.321Z,42.32
2023-09-28T01:57:51.784Z,42.32
2023-09-28T02:00:22.991Z,42.28
2023-09-28T02:02:51.131Z,42.25
2023-09-28T02:05:18.046Z,42.37
2023-09-28T02:07:45.944Z,42.34
2023-09-28T02:10:15.373Z,42.37
2023-09-28T02:12:42.292Z,42.38
2023-09-28T02:15:10.819Z,42.41
2023-09-28T02:17:38.002Z,42.40
2023-09-28T02:20:11.026Z,42.41
2023-09-28T02:22:42.579Z,42.41
2023-09-28T02:25:09.580Z,42.39
2023-09-28T02:27:36.129Z,42.43
2023-09-28T02:30:03.016Z,42.41
2023-09-28T02:32:29.662Z,42.37
2023-09-28T02:34:56.229Z,42.43
2023-09-28T02:37:22.673Z,42.40
2023-09-28T02:39:49.808Z,42.43
2023-09-28T02:42:16.423Z,42.40
2023-09-28T02:44:42.829Z,42.47
2023-09-28T02:47:10.879Z,42.43
2023-09-28T02:49:37.408Z,42.46
2023-09-28T02:52:04.837Z,42.51
2023-09-28T02:54:31.677Z,42.47
2023-09-28T02:56:59.047Z,42.48
2023-09-28T02:59:25.647Z,42.51
2023-09-28T03:01:53.370Z,42.53
2023-09-28T03:04:19.925Z,42.58
2023-09-28T03:06:47.720Z,42.54
2023-09-28T03:09:14.335Z,42.52
2023-09-28T03:11:41.045Z,42.58
2023-09-28T03:14:07.768Z,42.54
2023-09-28T03:16:34.675Z,42.59
2023-09-28T03:19:01.433Z,42.49
2023-09-28T03:21:30.677Z,42.56
2023-09-28T03:24:00.445Z,42.59
2023-09-28T03:26:28.182Z,42.55
2023-09-28T03:28:54.706Z,42.62
2023-09-28T03:31:21.315Z,42.55
2023-09-28T03:33:47.834Z,42.58
2023-09-28T03:36:16.498Z,42.63
2023-09-28T03:38:42.902Z,42.63
2023-09-28T03:41:09.491Z,42.64
2023-09-28T03:43:36.300Z,42.68
2023-09-28T03:46:03.335Z,42.77
2023-09-28T03:48:30.011Z,42.71
2023-09-28T03:50:56.547Z,42.79
2023-09-28T03:53:23.016Z,42.77
2023-09-28T03:55:50.595Z,42.82
2023-09-28T03:58:17.285Z,42.83
2023-09-28T04:00:43.975Z,42.80
2023-09-28T04:03:11.046Z,42.83
2023-09-28T04:05:37.655Z,42.78
2023-09-28T04:08:04.270Z,42.79
2023-09-28T04:10:30.792Z,42.85
2023-09-28T04:12:57.309Z,42.81
2023-09-28T04:15:24.189Z,42.88
2023-09-28T04:17:50.857Z,42.86
2023-09-28T04:20:17.739Z,42.86
2023-09-28T04:22:44.435Z,42.91
2023-09-28T04:25:11.478Z,42.86
2023-09-28T04:27:38.467Z,42.89
2023-09-28T04:30:05.456Z,42.86
2023-09-28T04:32:32.416Z,42.86
2023-09-28T04:35:02.509Z,42.84
2023-09-28T04:37:29.158Z,42.88
2023-09-28T04:39:55.587Z,42.92
2023-09-28T04:42:22.053Z,42.95
2023-09-28T04:44:48.594Z,42.87
2023-09-28T04:47:15.402Z,42.92
2023-09-28T04:49:42.483Z,42.95
2023-09-28T04:52:11.415Z,42.92
2023-09-28T04:54:39.196Z,42.94
2023-09-28T04:57:06.120Z,42.93
2023-09-28T04:59:35.950Z,42.96
2023-09-28T05:02:02.513Z,42.97
2023-09-28T05:04:30.038Z,42.99
2023-09-28T05:06:56.617Z,42.94
2023-09-28T05:09:23.129Z,43.04
2023-09-28T05:11:49.862Z,43.01
2023-09-28T05:24:05.554Z,43.06
2023-09-28T05:26:32.141Z,43.07
2023-09-28T05:28:58.711Z,43.06
2023-09-28T05:31:25.361Z,43.06
2023-09-28T05:33:52.613Z,43.07
2023-09-28T05:36:23.941Z,43.03
2023-09-28T05:38:52.436Z,43.01
2023-09-28T05:41:18.943Z,43.04
2023-09-28T05:43:45.423Z,43.06
2023-09-28T05:46:12.068Z,43.06
2023-09-28T05:48:39.496Z,43.11
2023-09-28T05:51:06.136Z,43.10
2023-09-28T05:53:32.563Z,43.12
2023-09-28T05:55:59.090Z,43.17
2023-09-28T05:58:25.710Z,43.12
2023-09-28T06:00:52.159Z,43.12
2023-09-28T06:03:18.694Z,43.18
2023-09-28T06:05:45.202Z,43.10
2023-09-28T06:08:11.700Z,42.17
2023-09-28T06:13:06.063Z,41.93
2023-09-28T06:15:33.768Z,42.06
2023-09-28T06:18:00.271Z,42.09
2023-09-28T06:20:26.860Z,42.30
2023-09-28T06:22:54.567Z,42.54
2023-09-28T06:25:21.188Z,42.60
2023-09-28T06:27:48.773Z,42.72
2023-09-28T06:30:15.365Z,42.72
2023-09-28T06:32:42.701Z,42.79
2023-09-28T06:35:10.650Z,42.93
2023-09-28T06:37:37.247Z,43.10
2023-09-28T06:40:04.065Z,42.91
2023-09-28T06:42:37.180Z,42.98
2023-09-28T06:45:05.187Z,42.64
2023-09-28T06:47:46.576Z,42.43
2023-09-28T06:50:18.664Z,42.50
2023-09-28T06:52:45.223Z,42.78
2023-09-28T06:55:11.699Z,42.47
2023-09-28T06:57:38.443Z,42.48
2023-09-28T07:00:10.089Z,42.41
2023-09-28T07:02:37.012Z,42.41
2023-09-28T07:05:04.555Z,42.20
2023-09-28T07:07:31.732Z,42.10
2023-09-28T07:09:58.237Z,42.17
2023-09-28T07:12:24.759Z,42.66
2023-09-28T07:14:51.296Z,42.57
2023-09-28T07:17:17.809Z,42.49
2023-09-28T07:19:45.120Z,42.62
2023-09-28T07:22:12.602Z,42.30
2023-09-28T07:24:39.295Z,42.32
2023-09-28T07:27:06.064Z,42.12
2023-09-28T07:29:33.839Z,42.45
2023-09-28T07:32:00.726Z,42.45
2023-09-28T07:34:28.294Z,42.47
2023-09-28T07:36:54.907Z,42.65
2023-09-28T07:39:21.692Z,42.55
2023-09-28T07:41:48.929Z,42.34
2023-09-28T07:44:16.038Z,42.21
2023-09-28T07:46:44.868Z,42.32
2023-09-28T07:49:11.754Z,42.10
2023-09-28T07:51:40.154Z,41.76
2023-09-28T07:54:06.863Z,41.69
2023-09-28T07:56:34.218Z,41.69
2023-09-28T07:59:03.592Z,41.66
2023-09-28T08:01:30.330Z,41.63
2023-09-28T08:03:57.298Z,41.90
2023-09-28T08:06:30.862Z,41.99
2023-09-28T08:08:58.341Z,41.98
2023-09-28T08:11:27.664Z,41.98
2023-09-28T08:13:54.581Z,41.97
2023-09-28T08:16:21.678Z,42.00
2023-09-28T08:18:49.220Z,41.92
2023-09-28T08:21:15.930Z,41.65
2023-09-28T08:23:43.086Z,41.69
2023-09-28T08:26:09.940Z,41.66
2023-09-28T08:28:36.776Z,41.66
2023-09-28T08:31:06.359Z,41.65
2023-09-28T08:33:33.393Z,41.82
2023-09-28T08:36:00.123Z,41.21
2023-09-28T08:38:27.102Z,41.24
2023-09-28T08:40:57.975Z,41.31
2023-09-28T08:43:24.875Z,41.32
2023-09-28T08:45:52.011Z,41.23
2023-09-28T08:48:18.758Z,41.15
2023-09-28T08:50:46.560Z,40.97
2023-09-28T08:53:13.370Z,41.16
2023-09-28T08:55:40.167Z,41.27
2023-09-28T08:58:07.404Z,41.44
2023-09-28T09:00:36.078Z,41.40
2023-09-28T09:03:02.876Z,41.71
2023-09-28T09:05:31.059Z,41.97
2023-09-28T09:07:58.565Z,41.67
2023-09-28T09:10:25.257Z,41.71
2023-09-28T09:12:55.509Z,41.58
2023-09-28T09:15:22.241Z,41.75
2023-09-28T09:17:49.676Z,41.98
2023-09-28T09:20:16.429Z,41.60
2023-09-28T09:22:58.002Z,41.30
2023-09-28T09:25:42.001Z,41.23
2023-09-28T09:28:08.842Z,41.38
2023-09-28T09:30:38.828Z,41.09
2023-09-28T09:33:08.626Z,41.16
2023-09-28T09:35:35.734Z,41.08
2023-09-28T09:38:02.434Z,41.11
2023-09-28T09:40:29.320Z,41.31
2023-09-28T09:42:58.006Z,41.58
2023-09-28T09:45:24.835Z,41.44
2023-09-28T09:47:51.673Z,41.68
2023-09-28T09:50:18.842Z,41.47
2023-09-28T09:52:45.829Z,41.43
2023-09-28T09:55:13.551Z,41.65
2023-09-28T09:57:43.283Z,41.77
2023-09-28T10:00:10.399Z,41.32
2023-09-28T10:02:38.141Z,41.15
2023-09-28T10:05:05.717Z,41.26
2023-09-28T10:07:47.396Z,41.21
2023-09-28T10:10:15.361Z,41.26
2023-09-28T10:12:42.373Z,41.34
2023-09-28T10:15:09.640Z,41.34
2023-09-28T10:17:36.976Z,41.62
2023-09-28T10:20:04.230Z,41.41
2023-09-28T10:22:31.246Z,41.25
2023-09-28T10:24:57.838Z,41.12
2023-09-28T10:27:24.680Z,40.96
2023-09-28T10:29:51.526Z,40.94
2023-09-28T10:32:33.514Z,41.17
2023-09-28T10:35:31.653Z,41.46
2023-09-28T10:38:23.826Z,41.59
2023-09-28T10:41:04.516Z,41.91
2023-09-28T10:43:33.532Z,41.84
2023-09-28T10:46:05.389Z,41.50
2023-09-28T10:48:46.065Z,41.53
2023-09-28T10:51:13.682Z,41.45
2023-09-28T10:53:40.537Z,41.23
2023-09-28T10:56:08.097Z,41.30
2023-09-28T10:58:38.991Z,41.71
2023-09-28T11:01:06.254Z,41.43
2023-09-28T11:03:36.724Z,41.48
2023-09-28T11:06:09.822Z,41.13
2023-09-28T11:08:38.024Z,41.36
2023-09-28T11:11:05.179Z,40.97
2023-09-28T11:13:32.256Z,41.11
2023-09-28T11:15:59.224Z,40.75
2023-09-28T11:18:26.972Z,40.46
2023-09-28T11:20:57.303Z,40.46
2023-09-28T11:23:27.146Z,40.73
2023-09-28T11:25:54.117Z,40.74
2023-09-28T11:28:20.882Z,40.50
2023-09-28T11:30:52.575Z,40.77
2023-09-28T11:33:20.343Z,40.97
2023-09-28T11:35:48.002Z,40.68
2023-09-28T11:38:14.932Z,40.94
2023-09-28T11:40:41.782Z,40.92
2023-09-28T11:43:10.533Z,41.02
2023-09-28T11:45:37.438Z,40.98
2023-09-28T11:48:07.063Z,41.11
2023-09-28T11:50:34.023Z,40.83
2023-09-28T11:53:00.837Z,40.51
2023-09-28T11:55:28.199Z,40.54
2023-09-28T11:57:58.927Z,40.60
2023-09-28T12:00:25.959Z,40.88
2023-09-28T12:02:53.636Z,41.29
2023-09-28T12:05:21.242Z,41.13
2023-09-28T12:07:47.932Z,40.17
2023-09-28T12:10:15.808Z,40.52
2023-09-28T12:12:42.694Z,40.76
2023-09-28T12:15:12.837Z,41.10
2023-09-28T12:17:40.875Z,40.74
2023-09-28T12:20:14.089Z,40.83
2023-09-28T12:22:41.523Z,40.91
2023-09-28T12:25:10.010Z,40.72
2023-09-28T12:27:39.670Z,40.94
2023-09-28T12:30:07.285Z,41.10
2023-09-28T12:32:34.201Z,41.34
2023-09-28T12:35:04.003Z,41.69
2023-09-28T12:37:33.983Z,40.74
2023-09-28T12:40:00.650Z,40.55
2023-09-28T12:42:27.791Z,40.42
2023-09-28T12:44:54.862Z,40.75
2023-09-28T12:47:22.030Z,40.77
2023-09-28T12:49:48.884Z,40.36
2023-09-28T12:52:15.937Z,39.89
2023-09-28T12:54:42.778Z,40.43
2023-09-28T12:57:10.112Z,40.39
2023-09-28T12:59:36.942Z,40.24
2023-09-28T13:02:06.798Z,40.56
2023-09-28T13:04:34.477Z,40.49
2023-09-28T13:07:01.685Z,39.75
2023-09-28T13:09:33.225Z,39.70
2023-09-28T13:12:00.518Z,39.80
2023-09-28T13:14:27.953Z,39.36
2023-09-28T13:16:58.794Z,39.54
2023-09-28T13:19:29.319Z,39.12
2023-09-28T13:21:59.704Z,40.00
2023-09-28T13:24:28.198Z,40.12
2023-09-28T13:26:58.129Z,40.23
2023-09-28T13:29:25.173Z,39.51
2023-09-28T13:31:51.805Z,39.18
2023-09-28T13:34:21.497Z,39.53
2023-09-28T13:36:48.168Z,39.80
2023-09-28T13:39:28.286Z,39.50
2023-09-28T13:41:59.938Z,39.65
2023-09-28T13:44:26.735Z,39.36
2023-09-28T13:46:55.900Z,39.50
2023-09-28T13:49:24.711Z,39.37
2023-09-28T13:51:53.024Z,39.00
2023-09-28T13:54:20.574Z,38.98
2023-09-28T13:56:50.533Z,39.31
2023-09-28T13:59:17.406Z,39.30
2023-09-28T14:01:48.500Z,39.33
2023-09-28T14:04:16.495Z,39.61
2023-09-28T14:06:43.477Z,39.89
2023-09-28T14:09:14.189Z,39.73
2023-09-28T14:11:43.803Z,39.63
2023-09-28T14:14:11.439Z,39.78
2023-09-28T14:16:41.105Z,39.51
2023-09-28T14:19:08.035Z,39.64
2023-09-28T14:21:38.058Z,39.71
2023-09-28T14:24:07.697Z,40.09
2023-09-28T14:26:35.099Z,39.89
2023-09-28T14:29:02.848Z,39.07
2023-09-28T14:31:29.640Z,38.90
2023-09-28T14:33:57.229Z,38.55
2023-09-28T14:36:24.418Z,38.89
2023-09-28T14:38:52.045Z,39.08
2023-09-28T14:41:19.466Z,38.76
2023-09-28T14:43:48.546Z,38.97
2023-09-28T14:46:15.680Z,39.02
2023-09-28T14:48:43.651Z,39.36
2023-09-28T14:51:10.781Z,39.31
2023-09-28T14:53:38.005Z,39.24
2023-09-28T14:56:05.395Z,39.19
2023-09-28T14:58:32.319Z,39.46
2023-09-28T15:00:59.493Z,39.05
2023-09-28T15:03:26.292Z,39.03
2023-09-28T15:05:53.502Z,39.12
2023-09-28T15:08:20.327Z,39.15
2023-09-28T15:10:49.497Z,39.09
2023-09-28T15:13:17.394Z,39.20
2023-09-28T15:15:44.082Z,39.64
2023-09-28T15:18:10.789Z,39.90
2023-09-28T15:20:37.609Z,39.92
2023-09-28T15:23:04.627Z,39.84
2023-09-28T15:25:31.640Z,39.79
2023-09-28T15:27:58.305Z,39.77
2023-09-28T15:30:25.107Z,39.74
2023-09-28T15:32:51.912Z,39.72
2023-09-28T15:35:21.243Z,39.71
2023-09-28T15:37:47.941Z,39.66
2023-09-28T15:40:14.969Z,39.71
2023-09-28T15:42:42.589Z,39.73
2023-09-28T15:45:10.681Z,39.67
2023-09-28T15:47:41.079Z,39.73
2023-09-28T15:50:09.971Z,39.77
2023-09-28T15:52:37.021Z,39.78
2023-09-28T15:55:04.324Z,39.79
2023-09-28T15:57:31.478Z,39.82
2023-09-28T15:59:58.477Z,39.83
2023-09-28T16:02:26.532Z,39.84
2023-09-28T16:04:55.608Z,39.85
2023-09-28T16:07:22.288Z,39.88
2023-09-28T16:09:51.899Z,39.91
2023-09-28T16:12:19.767Z,39.90
2023-09-28T16:14:46.689Z,39.95
2023-09-28T16:17:13.458Z,39.96
2023-09-28T16:19:40.307Z,39.96
2023-09-28T16:22:08.222Z,39.97
2023-09-28T16:24:35.062Z,40.00
2023-09-28T16:27:02.306Z,39.99
2023-09-28T16:29:31.328Z,40.04
2023-09-28T16:31:58.931Z,40.05
2023-09-28T16:34:26.132Z,40.09
2023-09-28T16:36:52.843Z,40.10
2023-09-28T16:39:19.620Z,40.14
2023-09-28T16:41:46.402Z,40.16
2023-09-28T16:44:13.127Z,40.20
2023-09-28T16:46:40.844Z,40.22
2023-09-28T16:49:07.601Z,40.25
2023-09-28T16:51:34.329Z,40.28
2023-09-28T16:54:00.970Z,40.31
2023-09-28T16:56:27.700Z,40.36
2023-09-28T16:58:55.915Z,40.37
2023-09-28T17:01:23.019Z,40.39
2023-09-28T17:03:51.300Z,40.44
2023-09-28T17:06:20.295Z,40.48
2023-09-28T17:08:49.481Z,40.59
2023-09-28T17:11:16.500Z,40.65
2023-09-28T17:13:43.410Z,40.71
2023-09-28T17:16:10.569Z,40.84
2023-09-28T17:18:37.339Z,40.97
2023-09-28T17:21:04.079Z,41.06
2023-09-28T17:23:30.960Z,41.11
2023-09-28T17:25:57.865Z,41.16
2023-09-28T17:28:25.882Z,41.18
2023-09-28T17:30:52.787Z,41.24
2023-09-28T17:33:22.367Z,41.21
2023-09-28T17:35:49.379Z,41.21
2023-09-28T17:38:16.193Z,41.18
2023-09-28T17:40:42.854Z,41.16
2023-09-28T17:43:09.896Z,41.11
2023-09-28T17:45:36.611Z,41.09
2023-09-28T17:48:05.550Z,41.09
2023-09-28T17:50:32.634Z,41.09
2023-09-28T17:52:59.378Z,41.08
2023-09-28T17:55:26.181Z,41.01
2023-09-28T17:57:54.052Z,41.05
2023-09-28T18:00:20.778Z,41.04
2023-09-28T18:02:48.972Z,41.02
2023-09-28T18:05:16.006Z,41.02
2023-09-28T18:07:42.748Z,41.01
2023-09-28T18:10:10.033Z,41.03
2023-09-28T18:12:37.121Z,41.04
2023-09-28T18:15:06.862Z,41.05
2023-09-28T18:17:33.692Z,41.09
2023-09-28T18:20:00.497Z,41.07
2023-09-28T18:22:28.019Z,41.11
2023-09-28T18:24:54.782Z,41.10
2023-09-28T18:27:21.389Z,41.09
2023-09-28T18:29:49.005Z,41.10
2023-09-28T18:32:15.692Z,41.10
2023-09-28T18:34:42.723Z,41.11
2023-09-28T18:37:09.494Z,41.11
2023-09-28T18:39:36.733Z,41.13
2023-09-28T18:42:03.432Z,41.15
2023-09-28T18:44:30.182Z,41.16
2023-09-28T18:46:57.574Z,41.15
2023-09-28T18:49:24.337Z,41.15
2023-09-28T18:51:52.906Z,41.17
2023-09-28T18:54:20.075Z,41.15
2023-09-28T18:56:46.837Z,41.16
2023-09-28T18:59:14.679Z,41.18
2023-09-28T19:01:43.280Z,41.27
2023-09-28T19:04:10.400Z,41.22
2023-09-28T19:06:37.144Z,41.23
2023-09-28T19:09:03.871Z,41.27
2023-09-28T19:11:30.594Z,41.28
2023-09-28T19:13:57.870Z,41.22
2023-09-28T19:16:24.906Z,41.27
2023-09-28T19:18:54.204Z,41.30
2023-09-28T19:21:20.986Z,41.33
2023-09-28T19:23:47.832Z,41.29
2023-09-28T19:26:14.542Z,41.30
2023-09-28T19:28:41.416Z,41.35
2023-09-28T19:31:08.187Z,41.35
2023-09-28T19:33:34.815Z,41.34
2023-09-28T19:36:05.980Z,41.37
2023-09-28T19:38:32.699Z,41.34
2023-09-28T19:41:03.139Z,41.39
2023-09-28T19:43:29.789Z,41.38
2023-09-28T19:45:56.578Z,41.42
2023-09-28T19:48:23.367Z,41.39
2023-09-28T19:50:50.273Z,41.38
2023-09-28T19:53:20.148Z,41.44
2023-09-28T19:55:49.441Z,41.43
2023-09-28T19:58:16.148Z,41.39
2023-09-28T20:00:42.915Z,41.42
2023-09-28T20:03:10.302Z,41.43
2023-09-28T20:05:37.060Z,41.38
2023-09-28T20:08:04.001Z,41.37
2023-09-28T20:10:35.170Z,41.37
2023-09-28T20:13:03.432Z,41.42
2023-09-28T20:15:30.153Z,41.50
2023-09-28T20:17:57.026Z,41.36
2023-09-28T20:20:26.191Z,41.49
2023-09-28T20:22:57.092Z,41.48
2023-09-28T20:25:24.816Z,41.48
2023-09-28T20:27:51.700Z,41.58
2023-09-28T20:30:18.388Z,41.62
2023-09-28T20:32:46.030Z,41.55
2023-09-28T20:35:14.556Z,41.59
2023-09-28T20:37:41.686Z,41.64
2023-09-28T20:40:08.843Z,41.65
2023-09-28T20:42:35.480Z,41.67
2023-09-28T20:45:02.236Z,41.66
2023-09-28T20:47:29.037Z,41.64
2023-09-28T20:49:55.894Z,41.62
2023-09-28T20:52:22.716Z,41.64
2023-09-28T20:54:49.556Z,41.62
2023-09-28T20:57:16.471Z,41.59
2023-09-28T20:59:43.171Z,41.63
2023-09-28T21:02:09.969Z,41.63
2023-09-28T21:04:36.638Z,41.62
2023-09-28T21:07:03.410Z,41.65
2023-09-28T21:09:30.052Z,41.65
2023-09-28T21:11:56.828Z,41.64
2023-09-28T21:14:26.639Z,41.60
2023-09-28T21:16:53.287Z,41.63
2023-09-28T21:19:20.610Z,41.65
2023-09-28T21:21:47.317Z,41.70
2023-09-28T21:24:14.007Z,41.64
2023-09-28T21:26:40.821Z,41.65
2023-09-28T21:29:07.487Z,41.65
2023-09-28T21:31:34.221Z,41.67
2023-09-28T21:34:01.000Z,41.62
2023-09-28T21:36:27.602Z,41.65
2023-09-28T21:38:54.531Z,41.65
2023-09-28T21:41:21.423Z,41.61
2023-09-28T21:43:48.063Z,41.63
2023-09-28T21:46:22.498Z,41.61
2023-09-28T21:48:52.010Z,41.62
2023-09-28T21:51:19.090Z,41.67
2023-09-28T21:53:46.125Z,41.68
2023-09-28T21:56:13.343Z,41.68
2023-09-28T21:58:40.004Z,41.69
2023-09-28T22:01:06.778Z,41.69
2023-09-28T22:03:33.685Z,41.70
2023-09-28T22:06:01.304Z,41.69
2023-09-28T22:08:27.946Z,41.70
2023-09-28T22:10:54.622Z,41.70
2023-09-28T22:13:21.580Z,41.74
2023-09-28T22:15:50.648Z,41.72
2023-09-28T22:18:17.419Z,41.77
2023-09-28T22:20:44.182Z,41.77
2023-09-28T22:23:10.798Z,41.77
2023-09-28T22:25:40.409Z,41.74
2023-09-28T22:28:07.115Z,41.75
2023-09-28T22:30:34.012Z,41.77
2023-09-28T22:33:00.727Z,41.78
2023-09-28T22:35:27.469Z,41.82
2023-09-28T22:37:56.754Z,41.82
2023-09-28T22:40:28.603Z,41.81
2023-09-28T22:42:56.087Z,41.81
2023-09-28T22:45:22.943Z,41.87
2023-09-28T22:47:52.494Z,41.87
2023-09-28T22:50:19.360Z,41.89
2023-09-28T22:52:46.241Z,41.91
2023-09-28T22:55:13.345Z,41.90
2023-09-28T22:57:40.278Z,41.87
2023-09-28T23:00:10.914Z,41.91
2023-09-28T23:02:41.284Z,41.95
2023-09-28T23:05:09.514Z,41.95
2023-09-28T23:07:36.366Z,41.92
2023-09-28T23:10:04.939Z,41.94
2023-09-28T23:12:32.940Z,41.90
2023-09-28T23:14:59.829Z,41.96
2023-09-28T23:17:26.725Z,41.95
2023-09-28T23:19:53.484Z,42.02
2023-09-28T23:22:20.222Z,41.99
2023-09-28T23:24:46.985Z,41.97
2023-09-28T23:27:13.594Z,41.89
2023-09-28T23:29:41.378Z,41.97
2023-09-28T23:32:08.129Z,41.96
2023-09-28T23:34:34.880Z,41.96
2023-09-28T23:37:02.724Z,41.95
2023-09-28T23:39:30.788Z,41.96
2023-09-28T23:42:02.103Z,41.94
2023-09-28T23:44:29.847Z,41.96
2023-09-28T23:46:57.841Z,41.95
2023-09-28T23:49:26.393Z,41.95
2023-09-28T23:51:53.084Z,41.94
2023-09-28T23:54:19.890Z,41.97
2023-09-28T23:56:46.646Z,42.03
2023-09-28T23:59:13.415Z,42.01
